Schillplate — ZDJJ8 — position and weather

sailwx.info

Track history (hours):
 
Tides and Currents Weather Stations Pressure Air Temp Water Temp Dewpoint Dewpoint Depression Visibility Wind Speed Wind Dir Waves Ship Positions

Schillplate

Last reported at 2016-Jun-09 19:33 UTC. Time now 2016-Jun-30 14:14 UTC.
Position N 55°47' W 006°47'.
Warning: this ship's position is 20 days out of date.

Length 86 m; draft 3.9 m.

Type: Cargo ship. MMSI: 236111603.

Date/timePositionNaut miles runAvg speedWind from/ knotsBaromVisibWave heightAir tempDewpointWater temp
2016-Jun-09 19:33N 55°47' W 006°47'1212.6
2016-Jun-09 18:34N 55°36' W 006°37'1313.2
2016-Jun-09 17:33N 55°28' W 006°17'1312.8
2016-Jun-09 16:33N 55°21' W 005°58'1312.5
2016-Jun-09 15:30N 55°14' W 005°38'  
2016-Jun-06 21:07N 55°15' W 005°31'5 9.8
2016-Jun-06 20:34N 55°13' W 005°40'10 9.6
2016-Jun-06 19:33N 55°13' W 005°57'1110.9
2016-Jun-06 18:33N 55°21' W 006°11'9 8.8
2016-Jun-06 17:33N 55°25' W 006°25'9 9.1
2016-Jun-06 16:34N 55°33' W 006°33'8 7.8
2016-Jun-06 15:33N 55°39' W 006°40'7 7.1
2016-Jun-06 14:33N 55°45' W 006°47'9 8.1
2016-Jun-06 13:26N 55°53' W 006°55'188 9.0
2016-Jun-05 16:31N 58°41' W 004°20'1111.0
2016-Jun-05 15:33N 58°42' W 003°59'1211.6
2016-Jun-05 14:34N 58°42' W 003°37'1514.5
2016-Jun-05 13:34N 58°43' W 003°09'1414.1
2016-Jun-05 12:33N 58°42' W 002°42'1110.3
2016-Jun-05 11:28N 58°40' W 002°21'17810.4
2016-Jun-04 18:18N 58°12' E 003°15'1110.0
2016-Jun-04 17:14N 58°09' E 003°35'710.1
2016-Jun-04 16:33N 58°08' E 003°48'1010.3
2016-Jun-04 15:33N 58°06' E 004°07'1010.5
2016-Jun-04 14:33N 58°03' E 004°26'1110.7
2016-Jun-04 13:34N 58°01' E 004°46'4210.5
2016-Jun-04 09:33N 57°52' E 006°04'1211.6
2016-Jun-04 08:33N 57°50' E 006°25'1312.9
2016-Jun-04 07:34N 57°48' E 006°49'1312.9
2016-Jun-04 06:33N 57°47' E 007°13'8611.9
2016-Jun-03 23:22N 57°48' E 009°54'1011.8
2016-Jun-03 22:33N 57°48' E 010°12'1111.4
2016-Jun-03 21:33N 57°48' E 010°33'9 9.3
2016-Jun-03 20:33N 57°42' E 010°46'1212.1
2016-Jun-03 19:32N 57°30' E 010°44'1212.2
2016-Jun-03 18:33N 57°18' E 010°43'2211.0
2016-Jun-03 16:32N 56°56' E 010°51'3310.9
2016-Jun-03 13:30N 56°24' E 011°05'1112.2
2016-Jun-03 12:33N 56°15' E 010°53'1211.7
2016-Jun-03 11:33N 56°05' E 010°40'1111.0
2016-Jun-03 10:33N 56°08' E 010°21'4 4.2
2016-Jun-03 09:31N 56°09' E 010°13'0 0.0
2016-Jun-03 08:31N 56°09' E 010°13'0 0.0
2016-Jun-03 07:31N 56°09' E 010°13'0 0.0
2016-Jun-03 06:31N 56°09' E 010°13'0 0.0
2016-Jun-03 05:31N 56°09' E 010°13'0 0.0
2016-Jun-03 04:31N 56°09' E 010°13'0 0.0
2016-Jun-03 03:31N 56°09' E 010°13'0 0.0
2016-Jun-03 02:31N 56°09' E 010°13'0 0.0
2016-Jun-03 01:31N 56°09' E 010°13'0 0.0
2016-Jun-03 00:31N 56°09' E 010°13'0 0.0
2016-Jun-02 23:31N 56°09' E 010°13'0 0.0
2016-Jun-02 22:31N 56°09' E 010°13'0 0.0
2016-Jun-02 21:31N 56°09' E 010°13'0 0.0
2016-Jun-02 20:31N 56°09' E 010°13'0 0.0
2016-Jun-02 19:31N 56°09' E 010°13'1 0.6
2016-Jun-02 18:33N 56°09' E 010°14'0 0.0
2016-Jun-02 17:33N 56°09' E 010°14'0 0.0
2016-Jun-02 16:33N 56°09' E 010°14'0 0.0
2016-Jun-02 15:33N 56°09' E 010°14'0 0.0
2016-Jun-02 14:33N 56°09' E 010°14'0 0.0
2016-Jun-02 13:33N 56°09' E 010°14'0 0.0
2016-Jun-02 12:33N 56°09' E 010°14'0 0.0
2016-Jun-02 11:33N 56°09' E 010°14'0 0.0
2016-Jun-02 10:33N 56°09' E 010°14'0 0.0
2016-Jun-02 09:33N 56°09' E 010°14'0 0.0
2016-Jun-02 08:33N 56°09' E 010°14'0 0.0
2016-Jun-02 07:33N 56°09' E 010°14'0 0.0
2016-Jun-02 06:33N 56°09' E 010°14'0 0.0
2016-Jun-02 05:33N 56°09' E 010°14'0 0.0
2016-Jun-02 04:33N 56°09' E 010°14'0 0.0
2016-Jun-02 03:33N 56°09' E 010°14'0 0.0
2016-Jun-02 02:33N 56°09' E 010°14'0 0.0
2016-Jun-02 01:33N 56°09' E 010°14'0 0.0
2016-Jun-02 00:33N 56°09' E 010°14'0 0.0
2016-Jun-01 23:33N 56°09' E 010°14'0 0.0
2016-Jun-01 22:33N 56°09' E 010°14'0 0.0
2016-Jun-01 21:33N 56°09' E 010°14'0 0.0
2016-Jun-01 20:33N 56°09' E 010°14'0 0.0
2016-Jun-01 19:33N 56°09' E 010°14'0 0.0
2016-Jun-01 18:33N 56°09' E 010°14'0 0.0
2016-Jun-01 17:33N 56°09' E 010°14'0 0.0
2016-Jun-01 16:33N 56°09' E 010°14'0 0.0
2016-Jun-01 15:33N 56°09' E 010°14'0 0.0
2016-Jun-01 14:33N 56°09' E 010°14'0 0.0
2016-Jun-01 13:33N 56°09' E 010°14'0 0.0
2016-Jun-01 12:33N 56°09' E 010°14'0 0.0
2016-Jun-01 11:33N 56°09' E 010°14'0 0.0
2016-Jun-01 10:33N 56°09' E 010°14'0 0.0
2016-Jun-01 09:33N 56°09' E 010°14'1 1.2
2016-Jun-01 08:33N 56°09' E 010°16'9 9.4
2016-Jun-01 07:34N 56°05' E 010°31'12 9.0
2016-Jun-01 06:17N 56°11' E 010°48'710.3
2016-Jun-01 05:33N 56°17' E 010°56'11 9.7
2016-Jun-01 04:28N 56°26' E 011°04'32 9.3
2016-Jun-01 01:05N 56°57' E 010°51'6 9.9
2016-Jun-01 00:32N 57°02' E 010°49'1010.2
2016-May-31 23:33N 57°12' E 010°44'10 9.8
2016-May-31 22:33N 57°22' E 010°42'10 9.9
2016-May-31 21:33N 57°31' E 010°44'10 9.8
2016-May-31 20:33N 57°41' E 010°45'7 7.1
2016-May-31 19:34N 57°47' E 010°37'9 9.5
2016-May-31 18:34N 57°47' E 010°19'9 9.4
2016-May-31 17:33N 57°47' E 010°02'10 9.6
2016-May-31 16:34N 57°46' E 009°44'10 9.6
2016-May-31 15:33N 57°45' E 009°26'9 9.3
2016-May-31 14:34N 57°44' E 009°08'9 9.3
2016-May-31 13:33N 57°44' E 008°51'49 8.1
2016-May-31 07:31N 57°42' E 007°20'8 8.0
2016-May-31 06:33N 57°42' E 007°05'18 9.1
2016-May-31 04:33N 57°43' E 006°31'10 9.6
2016-May-31 03:33N 57°46' E 006°14'9 8.9
2016-May-31 02:33N 57°48' E 005°58'10 9.9
2016-May-31 01:33N 57°50' E 005°40'10 9.8
2016-May-31 00:33N 57°53' E 005°22'10 9.7
2016-May-30 23:33N 57°55' E 005°04'10 9.9
2016-May-30 22:33N 57°58' E 004°46'1010.1
2016-May-30 21:33N 58°00' E 004°28'  
Track history (hours):
 
Tides and Currents Weather Stations Pressure Air Temp Water Temp Dewpoint Dewpoint Depression Visibility Wind Speed Wind Dir Waves Ship Positions

Schillplate

Last reported at 2016-Jun-09 19:33 UTC. Time now 2016-Jun-30 14:14 UTC.
Position N 55°47' W 006°47'.
Warning: this ship's position is 20 days out of date.

Length 86 m; draft 3.9 m.

Type: Cargo ship. MMSI: 236111603.

Date/timePositionNaut miles runAvg speedWind from/ knotsBaromVisibWave heightAir tempDewpointWater temp
2016-Jun-09 19:33N 55°47' W 006°47'1212.6
2016-Jun-09 18:34N 55°36' W 006°37'1313.2
2016-Jun-09 17:33N 55°28' W 006°17'1312.8
2016-Jun-09 16:33N 55°21' W 005°58'1312.5
2016-Jun-09 15:30N 55°14' W 005°38'  
2016-Jun-06 21:07N 55°15' W 005°31'5 9.8
2016-Jun-06 20:34N 55°13' W 005°40'10 9.6
2016-Jun-06 19:33N 55°13' W 005°57'1110.9
2016-Jun-06 18:33N 55°21' W 006°11'9 8.8
2016-Jun-06 17:33N 55°25' W 006°25'9 9.1
2016-Jun-06 16:34N 55°33' W 006°33'8 7.8
2016-Jun-06 15:33N 55°39' W 006°40'7 7.1
2016-Jun-06 14:33N 55°45' W 006°47'9 8.1
2016-Jun-06 13:26N 55°53' W 006°55'188 9.0
2016-Jun-05 16:31N 58°41' W 004°20'1111.0
2016-Jun-05 15:33N 58°42' W 003°59'1211.6
2016-Jun-05 14:34N 58°42' W 003°37'1514.5
2016-Jun-05 13:34N 58°43' W 003°09'1414.1
2016-Jun-05 12:33N 58°42' W 002°42'1110.3
2016-Jun-05 11:28N 58°40' W 002°21'17810.4
2016-Jun-04 18:18N 58°12' E 003°15'1110.0
2016-Jun-04 17:14N 58°09' E 003°35'710.1
2016-Jun-04 16:33N 58°08' E 003°48'1010.3
2016-Jun-04 15:33N 58°06' E 004°07'1010.5
2016-Jun-04 14:33N 58°03' E 004°26'1110.7
2016-Jun-04 13:34N 58°01' E 004°46'4210.5
2016-Jun-04 09:33N 57°52' E 006°04'1211.6
2016-Jun-04 08:33N 57°50' E 006°25'1312.9
2016-Jun-04 07:34N 57°48' E 006°49'1312.9
2016-Jun-04 06:33N 57°47' E 007°13'8611.9
2016-Jun-03 23:22N 57°48' E 009°54'1011.8
2016-Jun-03 22:33N 57°48' E 010°12'1111.4
2016-Jun-03 21:33N 57°48' E 010°33'9 9.3
2016-Jun-03 20:33N 57°42' E 010°46'1212.1
2016-Jun-03 19:32N 57°30' E 010°44'1212.2
2016-Jun-03 18:33N 57°18' E 010°43'2211.0
2016-Jun-03 16:32N 56°56' E 010°51'3310.9
2016-Jun-03 13:30N 56°24' E 011°05'1112.2
2016-Jun-03 12:33N 56°15' E 010°53'1211.7
2016-Jun-03 11:33N 56°05' E 010°40'1111.0
2016-Jun-03 10:33N 56°08' E 010°21'4 4.2
2016-Jun-03 09:31N 56°09' E 010°13'0 0.0
2016-Jun-03 08:31N 56°09' E 010°13'0 0.0
2016-Jun-03 07:31N 56°09' E 010°13'0 0.0
2016-Jun-03 06:31N 56°09' E 010°13'0 0.0
2016-Jun-03 05:31N 56°09' E 010°13'0 0.0
2016-Jun-03 04:31N 56°09' E 010°13'0 0.0
2016-Jun-03 03:31N 56°09' E 010°13'0 0.0
2016-Jun-03 02:31N 56°09' E 010°13'0 0.0
2016-Jun-03 01:31N 56°09' E 010°13'0 0.0
2016-Jun-03 00:31N 56°09' E 010°13'0 0.0
2016-Jun-02 23:31N 56°09' E 010°13'0 0.0
2016-Jun-02 22:31N 56°09' E 010°13'0 0.0
2016-Jun-02 21:31N 56°09' E 010°13'0 0.0
2016-Jun-02 20:31N 56°09' E 010°13'0 0.0
2016-Jun-02 19:31N 56°09' E 010°13'1 0.6
2016-Jun-02 18:33N 56°09' E 010°14'0 0.0
2016-Jun-02 17:33N 56°09' E 010°14'0 0.0
2016-Jun-02 16:33N 56°09' E 010°14'0 0.0
2016-Jun-02 15:33N 56°09' E 010°14'0 0.0
2016-Jun-02 14:33N 56°09' E 010°14'0 0.0
2016-Jun-02 13:33N 56°09' E 010°14'0 0.0
2016-Jun-02 12:33N 56°09' E 010°14'0 0.0
2016-Jun-02 11:33N 56°09' E 010°14'0 0.0
2016-Jun-02 10:33N 56°09' E 010°14'0 0.0
2016-Jun-02 09:33N 56°09' E 010°14'0 0.0
2016-Jun-02 08:33N 56°09' E 010°14'0 0.0
2016-Jun-02 07:33N 56°09' E 010°14'0 0.0
2016-Jun-02 06:33N 56°09' E 010°14'0 0.0
2016-Jun-02 05:33N 56°09' E 010°14'0 0.0
2016-Jun-02 04:33N 56°09' E 010°14'0 0.0
2016-Jun-02 03:33N 56°09' E 010°14'0 0.0
2016-Jun-02 02:33N 56°09' E 010°14'0 0.0
2016-Jun-02 01:33N 56°09' E 010°14'0 0.0
2016-Jun-02 00:33N 56°09' E 010°14'0 0.0
2016-Jun-01 23:33N 56°09' E 010°14'0 0.0
2016-Jun-01 22:33N 56°09' E 010°14'0 0.0
2016-Jun-01 21:33N 56°09' E 010°14'0 0.0
2016-Jun-01 20:33N 56°09' E 010°14'0 0.0
2016-Jun-01 19:33N 56°09' E 010°14'0 0.0
2016-Jun-01 18:33N 56°09' E 010°14'0 0.0
2016-Jun-01 17:33N 56°09' E 010°14'0 0.0
2016-Jun-01 16:33N 56°09' E 010°14'0 0.0
2016-Jun-01 15:33N 56°09' E 010°14'0 0.0
2016-Jun-01 14:33N 56°09' E 010°14'0 0.0
2016-Jun-01 13:33N 56°09' E 010°14'0 0.0
2016-Jun-01 12:33N 56°09' E 010°14'0 0.0
2016-Jun-01 11:33N 56°09' E 010°14'0 0.0
2016-Jun-01 10:33N 56°09' E 010°14'0 0.0
2016-Jun-01 09:33N 56°09' E 010°14'1 1.2
2016-Jun-01 08:33N 56°09' E 010°16'9 9.4
2016-Jun-01 07:34N 56°05' E 010°31'12 9.0
2016-Jun-01 06:17N 56°11' E 010°48'710.3
2016-Jun-01 05:33N 56°17' E 010°56'11 9.7
2016-Jun-01 04:28N 56°26' E 011°04'32 9.3
2016-Jun-01 01:05N 56°57' E 010°51'6 9.9
2016-Jun-01 00:32N 57°02' E 010°49'1010.2
2016-May-31 23:33N 57°12' E 010°44'10 9.8
2016-May-31 22:33N 57°22' E 010°42'10 9.9
2016-May-31 21:33N 57°31' E 010°44'10 9.8
2016-May-31 20:33N 57°41' E 010°45'7 7.1
2016-May-31 19:34N 57°47' E 010°37'9 9.5
2016-May-31 18:34N 57°47' E 010°19'9 9.4
2016-May-31 17:33N 57°47' E 010°02'10 9.6
2016-May-31 16:34N 57°46' E 009°44'10 9.6
2016-May-31 15:33N 57°45' E 009°26'9 9.3
2016-May-31 14:34N 57°44' E 009°08'9 9.3
2016-May-31 13:33N 57°44' E 008°51'49 8.1
2016-May-31 07:31N 57°42' E 007°20'8 8.0
2016-May-31 06:33N 57°42' E 007°05'18 9.1
2016-May-31 04:33N 57°43' E 006°31'10 9.6
2016-May-31 03:33N 57°46' E 006°14'9 8.9
2016-May-31 02:33N 57°48' E 005°58'10 9.9
2016-May-31 01:33N 57°50' E 005°40'10 9.8
2016-May-31 00:33N 57°53' E 005°22'10 9.7
2016-May-30 23:33N 57°55' E 005°04'10 9.9
2016-May-30 22:33N 57°58' E 004°46'1010.1
2016-May-30 21:33N 58°00' E 004°28'  

Dump ship's entire track history